Latest Weather Observations for Hobart Airport

IDT60801

Issued at 1:11 pm EST Sunday 23 September 2018 (issued every 10 minutes, with the page automatically refreshed every 10 minutes)

About weather observations | Map of weather stations | Latest weather observations for TAS | Other Formats
Station Details ID: 094008 Name: HOBART AIRPORT Lat: -42.83 Lon: 147.50 Height: 4.0 m
Data from the previous 72 hours. | See also: Recent months at Hobart Airport
Date/Time
EST
Temp
°C
App
Temp
°C
Dew
Point
°C
Rel
Hum
%
Delta-T
°C
Wind Press
QNH
hPa
Press
MSL
hPa
Rain since
9am
mm
Dir  Spd
km/h
Gust
km/h
Spd
kts
Gust
kts
23/01:00pm 9.6 3.9 0.4 52 3.7 SW 20 39 11 21 1027.9 1028.0 1.2
23/12:30pm 8.2 1.7 2.4 67 2.4 SW 26 39 14 21 1028.1 1028.2 1.2
23/12:04pm 7.5 2.3 3.5 76 1.7 SW 20 50 11 27 1028.5 1028.6 0.8
23/12:00pm 7.9 2.8 3.1 72 2.0 WSW 19 26 10 14 1028.2 1028.3 0.8
23/11:30am 7.7 0.0 2.1 67 2.3 SSW 32 41 17 22 1027.9 1028.0 0.4
23/11:00am 9.0 1.1 2.3 63 2.8 SW 33 52 18 28 1027.3 1027.4 0.4
23/10:58am 9.9 2.0 2.3 59 3.2 SW 33 52 18 28 1027.3 1027.4 0.4
23/10:30am 7.5 3.3 3.7 77 1.6 SSW 15 24 8 13 1027.3 1027.4 0.4
23/10:00am 8.8 3.3 1.7 61 2.9 SSW 20 37 11 20 1026.8 1026.9 0.0
23/09:30am 9.3 5.1 1.8 59 3.1 W 13 24 7 13 1026.4 1026.5 0.0
23/09:00am 8.9 3.9 1.6 60 3.0 SW 17 28 9 15 1026.1 1026.2 0.0
23/08:30am 8.9 4.2 0.7 56 3.3 WSW 15 20 8 11 1025.5 1025.6 0.0
23/08:00am 8.6 4.6 0.6 57 3.2 WNW 11 15 6 8 1025.1 1025.2 0.0
23/07:30am 8.2 3.7 -0.3 55 3.3 W 13 22 7 12 1024.8 1024.9 0.0
23/07:00am 7.2 3.6 0.3 61 2.7 WSW 9 15 5 8 1024.5 1024.6 0.0
23/06:30am 6.9 3.6 0.2 62 2.6 NW 7 11 4 6 1023.8 1023.9 0.0
23/06:00am 6.7 1.8 -0.4 60 2.7 WNW 15 19 8 10 1023.3 1023.4 0.0
23/05:30am 6.7 2.9 -1.0 58 2.9 WNW 9 15 5 8 1023.3 1023.4 0.0
23/05:00am 5.5 1.8 0.0 68 2.1 SW 9 13 5 7 1023.2 1023.3 0.0
23/04:30am 7.3 1.5 0.1 60 2.8 NW 20 26 11 14 1022.8 1022.9 0.0
23/04:00am 7.3 1.4 -0.8 56 3.1 NW 20 28 11 15 1022.5 1022.6 0.0
23/03:30am 6.9 0.9 -1.4 55 3.1 WNW 20 24 11 13 1022.7 1022.8 0.0
23/03:00am 7.3 2.6 -1.9 52 3.4 WNW 13 19 7 10 1022.9 1023.0 0.0
23/02:30am 7.3 2.3 -1.2 55 3.2 WNW 15 19 8 10 1023.0 1023.1 0.0
23/02:00am 7.8 3.4 0.5 60 2.9 WNW 13 19 7 10 1023.1 1023.2 0.0
23/01:30am 7.5 2.8 1.0 63 2.6 NW 15 19 8 10 1023.1 1023.2 0.0
23/01:00am 6.7 1.4 1.7 70 2.0 WNW 19 24 10 13 1023.4 1023.5 0.0
23/12:30am 7.4 2.8 1.4 66 2.4 WNW 15 22 8 12 1023.3 1023.4 0.0
23/12:00am 7.1 3.4 2.2 71 2.0 W 11 17 6 9 1023.3 1023.4 0.0
 
Date/Time
EST
Temp
°C
App
Temp
°C
Dew
Point
°C
Rel
Hum
%
Delta-T
°C
Wind Press
QNH
hPa
Press
MSL
hPa
Rain since
9am
mm
Dir  Spd
km/h
Gust
km/h
Spd
kts
Gust
kts
22/11:30pm 7.0 3.1 0.9 65 2.4 WNW 11 13 6 7 1022.8 1022.9 0.0
22/11:00pm 7.5 3.9 0.7 62 2.7 WSW 9 13 5 7 1022.8 1022.9 0.0
22/10:30pm 8.4 3.7 0.9 59 3.0 WSW 15 22 8 12 1022.9 1023.0 0.0
22/10:00pm 8.1 3.5 1.5 63 2.7 WSW 15 22 8 12 1022.5 1022.6 0.0
22/09:30pm 7.8 3.0 2.5 69 2.2 WSW 17 20 9 11 1022.6 1022.7 0.0
22/09:00pm 8.9 2.9 3.3 68 2.4 WSW 24 33 13 18 1022.3 1022.4 0.0
22/08:30pm 10.1 5.2 2.3 58 3.3 SW 17 20 9 11 1022.0 1022.0 0.0
22/08:00pm 10.0 6.3 4.4 68 2.5 W 13 19 7 10 1021.7 1021.7 0.0
22/07:30pm 10.9 6.6 3.1 58 3.4 WSW 15 19 8 10 1021.4 1021.4 0.0
22/07:00pm 11.3 6.6 3.0 56 3.6 SW 17 32 9 17 1020.8 1020.8 0.0
22/06:30pm 11.9 9.0 4.4 60 3.4 S 9 15 5 8 1020.3 1020.3 0.0
22/06:00pm 11.9 9.2 5.7 66 2.9 N 9 11 5 6 1019.8 1019.8 0.0
22/05:30pm 12.0 7.8 5.5 64 3.0 SW 17 28 9 15 1019.2 1019.2 0.0
22/05:00pm 12.4 7.2 5.3 62 3.3 SW 22 35 12 19 1018.7 1018.7 0.0
22/04:30pm 12.4 7.1 7.0 69 2.6 SSW 24 35 13 19 1018.3 1018.3 0.0
22/04:00pm 13.4 8.6 7.5 67 2.9 SSW 22 32 12 17 1017.8 1017.8 0.0
22/03:30pm 17.2 11.7 5.9 47 5.5 WNW 24 33 13 18 1017.1 1017.1 0.0
22/03:00pm 18.0 11.4 6.0 45 5.9 WNW 30 41 16 22 1017.0 1017.0 0.0
22/02:30pm 17.8 11.0 5.1 43 6.1 WNW 30 37 16 20 1016.9 1016.9 0.0
22/02:00pm 17.4 11.0 5.1 44 5.9 WNW 28 37 15 20 1016.7 1016.7 0.0
22/01:30pm 17.1 10.3 4.9 44 5.8 NW 30 39 16 21 1016.7 1016.7 0.0
22/01:02pm 17.0 10.3 5.6 47 5.5 NNW 30 48 16 26 1016.7 1016.7 0.0
22/01:00pm 16.7 9.9 5.2 46 5.5 NNW 30 39 16 21 1016.8 1016.8 0.0
22/12:30pm 16.9 10.4 4.9 45 5.7 NW 28 39 15 21 1017.1 1017.1 0.0
22/12:00pm 15.9 8.7 5.1 48 5.1 NW 32 43 17 23 1017.7 1017.7 0.0
22/11:30am 15.8 9.5 5.5 50 4.9 NW 28 39 15 21 1017.9 1017.9 0.0
22/11:00am 15.6 9.3 5.8 52 4.7 NW 28 39 15 21 1018.4 1018.4 0.0
22/10:30am 14.5 8.8 5.1 53 4.4 NW 24 35 13 19 1018.7 1018.7 0.0
22/10:00am 13.8 7.4 5.0 55 4.1 NW 28 41 15 22 1019.0 1019.0 0.0
22/09:30am 13.4 6.8 4.4 54 4.1 NW 28 39 15 21 1019.2 1019.2 0.0
22/09:00am 12.8 7.6 3.6 53 4.1 NW 20 28 11 15 1019.1 1019.1 0.0
22/08:30am 12.1 6.5 3.3 55 3.9 NW 22 30 12 16 1019.1 1019.1 0.0
22/08:00am 11.9 5.0 2.7 53 4.0 NW 28 35 15 19 1019.2 1019.2 0.0
22/07:30am 10.8 5.9 2.1 55 3.7 NW 17 26 9 14 1019.1 1019.1 0.0
22/07:00am 10.2 5.6 1.6 55 3.6 NW 15 24 8 13 1018.9 1018.9 0.0
22/06:30am 9.9 5.6 1.2 54 3.6 N 13 17 7 9 1018.9 1018.9 0.0
22/06:00am 8.9 4.3 1.6 60 3.0 NNW 15 20 8 11 1018.9 1018.9 0.0
22/05:30am 9.1 5.1 2.7 64 2.7 N 13 19 7 10 1018.6 1018.6 0.0
22/05:00am 9.4 5.2 1.7 58 3.2 NW 13 19 7 10 1018.4 1018.4 0.0
22/04:30am 9.8 6.0 1.9 58 3.3 NNW 11 19 6 10 1018.2 1018.2 0.0
22/04:00am 9.1 6.2 2.7 64 2.7 NNW 7 13 4 7 1018.2 1018.2 0.0
22/03:30am 10.0 6.7 2.5 59 3.2 NNW 9 17 5 9 1018.3 1018.3 0.0
22/03:00am 10.3 6.2 2.0 56 3.5 NW 13 20 7 11 1018.5 1018.5 0.0
22/02:30am 10.6 5.1 1.8 54 3.7 NW 20 30 11 16 1018.5 1018.5 0.0
22/02:00am 11.1 4.5 1.9 53 3.9 NW 26 35 14 19 1018.7 1018.7 0.0
22/01:30am 11.3 5.1 2.2 53 3.9 NNW 24 32 13 17 1018.8 1018.8 0.0
22/01:00am 11.4 3.5 2.0 52 4.0 NW 33 41 18 22 1019.0 1019.0 0.0
22/12:30am 11.6 3.3 2.3 53 4.0 NW 35 46 19 25 1018.9 1018.9 0.0
22/12:00am 11.8 3.3 3.1 55 3.8 NW 37 48 20 26 1018.7 1018.7 0.0
 
Date/Time
EST
Temp
°C
App
Temp
°C
Dew
Point
°C
Rel
Hum
%
Delta-T
°C
Wind Press
QNH
hPa
Press
MSL
hPa
Rain since
9am
mm
Dir  Spd
km/h
Gust
km/h
Spd
kts
Gust
kts
21/11:30pm 12.2 3.3 3.1 53 4.0 NW 39 52 21 28 1018.8 1018.8 0.0
21/11:00pm 12.5 3.3 3.5 54 4.0 NW 41 52 22 28 1018.5 1018.5 0.0
21/10:30pm 12.8 4.4 3.9 54 4.0 NW 37 50 20 27 1018.5 1018.5 0.0
21/10:00pm 13.2 5.2 3.9 53 4.2 NW 35 48 19 26 1019.0 1019.0 0.0
21/09:30pm 13.4 6.4 3.9 52 4.3 NW 30 43 16 23 1019.2 1019.2 0.0
21/09:00pm 13.5 6.1 4.0 52 4.3 NW 32 41 17 22 1019.3 1019.3 0.0
21/08:30pm 13.8 6.6 3.0 48 4.8 NW 30 39 16 21 1019.1 1019.1 0.0
21/08:00pm 14.1 7.4 3.4 48 4.8 NW 28 35 15 19 1019.0 1019.0 0.0
21/07:30pm 14.6 8.0 4.2 49 4.8 NW 28 35 15 19 1018.7 1018.7 0.0
21/07:00pm 14.9 7.9 4.0 48 5.0 NW 30 35 16 19 1018.3 1018.3 0.0
21/06:30pm 15.4 9.9 4.2 47 5.2 WNW 22 30 12 16 1018.4 1018.4 0.0
21/06:00pm 16.5 10.5 3.2 41 6.1 WNW 24 30 13 16 1018.0 1018.0 0.0
21/05:30pm 17.5 12.2 3.2 38 6.6 WNW 20 28 11 15 1017.8 1017.8 0.0
21/05:00pm 17.9 12.7 3.8 39 6.6 NW 20 28 11 15 1017.4 1017.4 0.0
21/04:30pm 19.2 13.5 4.7 38 7.0 WNW 24 32 13 17 1017.2 1017.2 0.0
21/04:00pm 20.1 15.9 5.8 39 7.1 WNW 17 26 9 14 1016.9 1016.9 0.0
21/03:30pm 20.4 14.7 4.8 36 7.6 WNW 24 32 13 17 1016.8 1016.8 0.0
21/03:00pm 20.1 14.8 4.9 37 7.4 NW 22 32 12 17 1016.7 1016.7 0.0
21/02:58pm 19.9 14.5 4.6 36 7.4 NW 22 30 12 16 1016.7 1016.7 0.0
21/02:30pm 19.0 13.9 6.0 42 6.4 NW 22 32 12 17 1016.8 1016.8 0.0
21/02:00pm 19.3 13.8 5.9 41 6.6 NNW 24 35 13 19 1016.9 1016.9 0.0
21/01:30pm 19.6 13.5 6.7 43 6.5 NW 28 37 15 20 1017.1 1017.1 0.0
21/01:00pm 18.9 12.6 5.9 42 6.4 NW 28 39 15 21 1017.4 1017.4 0.0
21/12:30pm 18.5 13.0 6.1 44 6.1 NW 24 32 13 17 1017.8 1017.8 0.0
21/12:00pm 17.6 14.1 5.6 45 5.8 NW 13 20 7 11 1018.2 1018.2 0.0
21/11:30am 16.0 11.3 5.0 48 5.2 NW 19 26 10 14 1018.5 1018.5 0.0
21/11:00am 15.7 10.1 5.4 50 4.9 NW 24 32 13 17 1018.7 1018.7 0.0
21/10:30am 14.9 8.9 5.4 53 4.5 NNW 26 37 14 20 1018.4 1018.4 0.0
21/10:00am 14.3 9.3 4.8 53 4.4 NNW 20 33 11 18 1018.6 1018.6 0.0
21/09:30am 14.5 10.2 5.4 54 4.3 NNW 17 28 9 15 1018.8 1018.8 0.0
21/09:00am 13.8 9.1 6.0 59 3.7 NNW 20 30 11 16 1019.0 1019.0 0.2
21/08:30am 13.8 8.6 5.5 57 3.9 NNW 22 33 12 18 1018.7 1018.7 0.2
21/08:00am 13.4 8.8 5.5 59 3.7 NNW 19 28 10 15 1018.8 1018.8 0.2
21/07:30am 12.4 8.2 5.8 64 3.1 NNW 17 26 9 14 1018.6 1018.6 0.2
21/07:00am 12.3 8.3 5.1 61 3.3 NNW 15 24 8 13 1018.5 1018.5 0.2
21/06:30am 10.7 6.8 5.2 69 2.5 NNW 15 22 8 12 1018.4 1018.4 0.2
21/06:00am 11.6 8.0 4.8 63 3.1 NNW 13 22 7 12 1017.9 1017.9 0.2
21/05:30am 10.7 7.1 5.2 69 2.5 NNW 13 17 7 9 1017.6 1017.6 0.2
21/05:00am 10.4 6.9 5.6 72 2.2 NNW 13 19 7 10 1017.5 1017.5 0.2
21/04:30am 10.8 7.3 5.3 69 2.5 N 13 19 7 10 1017.4 1017.4 0.2
21/04:00am 11.3 8.1 5.2 66 2.8 N 11 17 6 9 1017.2 1017.2 0.2
21/03:30am 10.3 7.6 5.5 72 2.2 NNW 9 11 5 6 1016.9 1016.9 0.2
21/03:00am 9.8 6.3 5.6 75 1.9 N 13 15 7 8 1016.8 1016.8 0.2
21/02:30am 10.5 7.0 5.5 71 2.3 NNW 13 19 7 10 1017.1 1017.1 0.2
21/02:00am 10.9 6.1 4.9 66 2.7 NNW 19 24 10 13 1017.4 1017.4 0.2
21/01:30am 10.4 5.6 5.4 71 2.3 NNW 20 32 11 17 1017.3 1017.3 0.2
21/01:00am 9.8 5.8 4.9 71 2.2 NNW 15 20 8 11 1017.5 1017.5 0.2
21/12:30am 10.2 6.6 4.9 69 2.4 N 13 19 7 10 1017.2 1017.2 0.2
21/12:00am 11.0 7.4 5.1 67 2.7 NNW 13 20 7 11 1017.1 1017.1 0.2
 
Date/Time
EST
Temp
°C
App
Temp
°C
Dew
Point
°C
Rel
Hum
%
Delta-T
°C
Wind Press
QNH
hPa
Press
MSL
hPa
Rain since
9am
mm
Dir  Spd
km/h
Gust
km/h
Spd
kts
Gust
kts
20/11:30pm 10.9 7.0 5.2 68 2.6 NNW 15 24 8 13 1017.1 1017.1 0.2
20/11:00pm 11.6 8.0 4.8 63 3.1 NNW 13 20 7 11 1017.0 1017.0 0.2
20/10:30pm 11.5 7.2 5.2 65 2.9 NNW 17 24 9 13 1017.0 1017.0 0.2
20/10:00pm 12.3 7.9 4.9 60 3.4 NNW 17 26 9 14 1017.1 1017.1 0.2
20/09:30pm 12.3 7.8 4.4 58 3.6 NNW 17 26 9 14 1016.8 1016.8 0.2
20/09:00pm 12.2 7.4 4.5 59 3.5 NNW 19 24 10 13 1016.4 1016.4 0.2
20/08:30pm 12.4 8.8 5.0 60 3.4 NNW 13 19 7 10 1016.4 1016.4 0.2
20/08:00pm 12.2 8.7 5.5 63 3.1 NNW 13 15 7 8 1016.2 1016.2 0.2
20/07:30pm 12.7 9.0 4.3 56 3.8 WNW 13 17 7 9 1016.1 1016.1 0.2
20/07:00pm 12.7 7.5 3.8 54 4.0 WNW 20 26 11 14 1015.5 1015.5 0.2
20/06:30pm 12.7 7.8 4.1 56 3.9 WNW 19 26 10 14 1015.3 1015.3 0.2
20/06:00pm 13.3 7.9 4.3 54 4.1 WNW 22 32 12 17 1014.9 1014.9 0.2
20/05:30pm 13.8 8.7 3.9 51 4.5 WNW 20 30 11 16 1014.6 1014.6 0.2
20/05:00pm 15.0 9.0 3.6 46 5.2 WNW 24 32 13 17 1014.1 1014.1 0.2
20/04:30pm 15.0 9.4 3.3 45 5.3 WNW 22 32 12 17 1014.0 1014.0 0.2
20/04:00pm 15.4 8.6 3.3 44 5.5 WNW 28 37 15 20 1013.4 1013.4 0.2
20/03:30pm 15.2 8.4 3.3 45 5.4 NW 28 37 15 20 1013.4 1013.4 0.2
20/03:00pm 16.4 9.6 3.0 40 6.1 WNW 28 37 15 20 1013.2 1013.2 0.2
20/02:30pm 15.1 10.1 3.8 46 5.2 NW 19 26 10 14 1013.3 1013.3 0.2
20/02:00pm 15.2 8.9 3.9 47 5.2 NW 26 33 14 18 1013.2 1013.2 0.2
20/01:30pm 15.0 7.7 2.7 43 5.5 WNW 30 39 16 21 1013.2 1013.2 0.2

Other Formats:

Comma delimited format used in spreadsheet applications
http://www.bom.gov.au/fwo/IDT60801/IDT60801.94975.axf

JavaScript Object Notation format (JSON) in row-major order
http://www.bom.gov.au/fwo/IDT60801/IDT60801.94975.json